CheckWX is a tool to help pilots better visualize weather data.  It is not intended as a substitute for an official pre-flight weather briefing.

21:23:31 UTC

KOFF TAF
Offutt AFB Airport
Omaha, Nebraska, USA
TAF COR KOFF 161908Z 1619/1724 36010KT 9999 FEW180 QNH2981INS BECMG 1705/1706 09010KT 9999 SKC QNH2983INS BECMG 1721/1722 09005KT 9999 SCT200 QNH2990INS TX29/1621Z TN17/1710Z COR 161908

Jun-16@
19:00 UTC

Jun-16 @ 19:00 UTC

Jun-17@
05:00 UTC

Jun-17 @ 05:00 UTC

TAF COR KOFF 161908Z 1619/1724 36010KT 9999 FEW180 QNH2981INS
Wind
  • 360° at 10 KTS
Cloud Levels
  • Few at 18,000' AGL

Jun-17@
05:00 UTC

Jun-17 @ 05:00 UTC

Jun-17@
21:00 UTC

Jun-17 @ 21:00 UTC

BECMG 1705/1706 09010KT 9999 SKC QNH2983INS

Becoming

Becoming Conditions expected by Mon, Jun 17, 2019 @ 06:00 UTC

Wind
  • 090° at 10 KTS
Cloud Levels
  • Clear skies

Jun-17@
21:00 UTC

Jun-17 @ 21:00 UTC

Jun-18@
00:00 UTC

Jun-18 @ 00:00 UTC

BECMG 1721/1722 09005KT 9999 SCT200 QNH2990INS TX29/1621Z TN17/1710Z COR 161908

Becoming

Becoming Conditions expected by Mon, Jun 17, 2019 @ 22:00 UTC

Wind
  • 090° at 5 KTS
Cloud Levels
  • Scattered at 20,000' AGL